CYVR/YVR METAR and TAF weather

Enter ICAO airport designator
Station Type Date Time Source
CYVR METAR 2019/12/06 04:00 UTC NOAA

CYVR 060400Z VRB02KT 20SM OVC032 06/04 A3003 RMK SC8 SLP169


Station Type Date Time Source
CYVR Decoded METAR 2019/12/06 04:00 UTC NOAA

Vancouver International Air-Port, B. C., Canada (CYVR) 49-11N 123-10W 2M
Dec 05, 2019 - 11:00 PM EST / 2019.12.06 0400 UTC
Wind: Variable at 2 MPH (2 KT):0
Visibility: 20 mile(s):0
Sky conditions: overcast
Temperature: 42 F (6 C)
Dew Point: 39 F (4 C)
Relative Humidity: 86%
Pressure (altimeter): 30.03 in. Hg (1016 hPa)
ob: CYVR 060400Z VRB02KT 20SM OVC032 06/04 A3003 RMK SC8 SLP169
cycle: 4

Station Type Date Time Source
CYVR TAF 2019/12/06 03:39 UTC NOAA

TAF CYVR 060238Z 0603/0706 VRB03KT P6SM SCT020 OVC040
TEMPO 0603/0606 P6SM -SHRA
FM060600 08006KT P6SM -SHRA BKN020 OVC040
TEMPO 0606/0618 P6SM NSW SCT020 OVC040
FM061800 21006KT P6SM SCT005 BKN050
BECMG 0619/0621 08006KT
FM070300 10008KT P6SM -RA SCT005 BKN015 OVC040
RMK NXT FCST BY 060600Z

Example: see airport list